Aviation Digital Data Service (ADDS)

Output produced by TAFs form (0454 UTC 30 August 2016)
found at http://aviationweather.gov/adds/tafs/
 
KCNM 300257Z 3003/3024 36005KT P6SM OVC060 
     TEMPO 3006/3010 VRB15G25KT 6SM TSRA OVC050CB 
     FM301000 35008KT 5SM BR OVC004 
     FM301600 04007KT P6SM SCT016 BKN130 OVC250